createdAt,value
2016-02-25T00:02:52.545Z,1007.43
2016-02-25T00:06:00.100Z,1007.39
2016-02-25T00:09:03.561Z,1007.43
2016-02-25T00:12:16.117Z,1007.27
2016-02-25T00:15:28.580Z,1007.33
2016-02-25T00:18:41.197Z,1007.29
2016-02-25T00:21:57.706Z,1007.33
2016-02-25T00:25:01.291Z,1007.33
2016-02-25T00:28:11.879Z,1007.29
2016-02-25T00:31:24.232Z,1007.41
2016-02-25T00:34:33.428Z,1007.43
2016-02-25T00:37:43.374Z,1007.37
2016-02-25T00:40:58.475Z,1007.37
2016-02-25T00:44:02.030Z,1007.29
2016-02-25T00:47:14.960Z,1007.33
2016-02-25T00:50:27.565Z,1007.31
2016-02-25T00:53:39.729Z,1007.43
2016-02-25T00:56:56.081Z,1007.29
2016-02-25T00:59:59.667Z,1007.33
2016-02-25T01:03:12.112Z,1007.27
2016-02-25T01:06:24.451Z,1007.21
2016-02-25T01:09:35.069Z,1007.13
2016-02-25T01:12:51.499Z,1007.13
2016-02-25T01:15:59.475Z,1007.11
2016-02-25T01:19:03.015Z,1007.13
2016-02-25T01:22:19.149Z,1007.17
2016-02-25T01:25:23.830Z,1007.11
2016-02-25T01:28:36.339Z,1007.13
2016-02-25T01:31:52.065Z,1006.99
2016-02-25T01:34:59.590Z,1007.07
2016-02-25T01:38:03.160Z,1007.03
2016-02-25T01:41:14.153Z,1006.93
2016-02-25T01:44:26.742Z,1006.91
2016-02-25T01:47:37.796Z,1006.71
2016-02-25T01:50:54.086Z,1006.83
2016-02-25T01:53:57.641Z,1006.79
2016-02-25T01:57:10.086Z,1006.61
2016-02-25T02:00:22.547Z,1006.63
2016-02-25T02:03:35.527Z,1006.57
2016-02-25T02:06:51.974Z,1006.61
2016-02-25T02:09:59.425Z,1006.54
2016-02-25T02:13:02.917Z,1006.46
2016-02-25T02:16:14.800Z,1006.5
2016-02-25T02:19:25.093Z,1006.4
2016-02-25T02:22:37.788Z,1006.46
2016-02-25T02:25:52.796Z,1006.26
2016-02-25T02:29:00.507Z,1006.28
2016-02-25T02:32:04.015Z,1006.46
2016-02-25T02:35:13.586Z,1006.28
2016-02-25T02:38:26.253Z,1006.32
2016-02-25T02:41:38.573Z,1006.4
2016-02-25T02:44:53.535Z,1006.24
2016-02-25T02:47:57.261Z,1006.22
2016-02-25T02:51:09.629Z,1006.36
2016-02-25T02:54:19.652Z,1006.3
2016-02-25T02:57:33.179Z,1006.1
2016-02-25T03:00:46.311Z,1006.24
2016-02-25T03:04:00.367Z,1006.2
2016-02-25T03:07:04.052Z,1006.12
2016-02-25T03:10:16.528Z,1006.2
2016-02-25T03:13:29.086Z,1006.04
2016-02-25T03:16:39.250Z,1006.1
2016-02-25T03:19:54.915Z,1006.1
2016-02-25T03:22:58.658Z,1006.02
2016-02-25T03:26:09.603Z,1005.96
2016-02-25T03:29:20.267Z,1006.1
2016-02-25T03:32:32.340Z,1006.02
2016-02-25T03:35:45.020Z,1006.04
2016-02-25T03:38:57.528Z,1006.12
2016-02-25T03:42:09.833Z,1005.96
2016-02-25T03:45:22.201Z,1006.04
2016-02-25T03:48:34.743Z,1006.06
2016-02-25T03:51:51.126Z,1005.96
2016-02-25T03:54:58.790Z,1005.88
2016-02-25T03:58:02.501Z,1005.92
2016-02-25T04:01:12.493Z,1005.86
2016-02-25T04:04:24.470Z,1005.86
2016-02-25T04:07:37.156Z,1005.98
2016-02-25T04:10:47.180Z,1005.82
2016-02-25T04:14:00.766Z,1005.74
2016-02-25T04:17:12.039Z,1005.82
2016-02-25T04:20:24.580Z,1005.8
2016-02-25T04:23:35.355Z,1005.82
2016-02-25T04:26:45.786Z,1005.9
2016-02-25T04:29:59.949Z,1005.82
2016-02-25T04:33:03.676Z,1005.92
2016-02-25T04:36:12.606Z,1005.88
2016-02-25T04:39:21.880Z,1005.78
2016-02-25T04:42:34.484Z,1005.94
2016-02-25T04:45:44.930Z,1005.76
2016-02-25T04:48:57.563Z,1005.74
2016-02-25T04:52:10.244Z,1005.9
2016-02-25T04:55:19.954Z,1005.8
2016-02-25T04:58:30.824Z,1005.9
2016-02-25T05:01:43.442Z,1005.9
2016-02-25T05:04:58.543Z,1005.98
2016-02-25T05:08:02.349Z,1005.86
2016-02-25T05:11:13.170Z,1005.92
2016-02-25T05:14:25.817Z,1005.92
2016-02-25T05:17:38.422Z,1005.96
2016-02-25T05:20:51.228Z,1005.96
2016-02-25T05:23:59.095Z,1006.12
2016-02-25T05:27:02.900Z,1006.16
2016-02-25T05:30:15.236Z,1006.2
2016-02-25T05:33:26.697Z,1006.08
2016-02-25T05:36:40.318Z,1006.04
2016-02-25T05:39:56.904Z,1006.16
2016-02-25T05:43:00.599Z,1006.02
2016-02-25T05:46:13.139Z,1005.9
2016-02-25T05:49:25.849Z,1006.04
2016-02-25T05:52:38.282Z,1005.78
2016-02-25T05:55:53.228Z,1005.76
2016-02-25T05:59:00.986Z,1005.86
2016-02-25T06:02:04.743Z,1005.78
2016-02-25T06:05:17.424Z,1005.8
2016-02-25T06:08:29.745Z,1005.7
2016-02-25T06:11:42.115Z,1005.68
2016-02-25T06:14:56.889Z,1005.58
2016-02-25T06:18:00.678Z,1005.68
2016-02-25T06:21:13.483Z,1005.64
2016-02-25T06:24:25.835Z,1005.78
2016-02-25T06:27:36.299Z,1005.72
2016-02-25T06:30:46.604Z,1005.76
2016-02-25T06:33:57.893Z,1005.72
2016-02-25T06:37:11.573Z,1005.68
2016-02-25T06:40:23.971Z,1005.6
2016-02-25T06:43:35.684Z,1005.64
2016-02-25T06:46:46.209Z,1005.82
2016-02-25T06:49:59.467Z,1005.72
2016-02-25T06:53:03.053Z,1005.74
2016-02-25T06:56:12.685Z,1005.86
2016-02-25T06:59:25.095Z,1005.76
2016-02-25T07:02:36.249Z,1005.88
2016-02-25T07:05:52.978Z,1005.86
2016-02-25T07:09:00.830Z,1005.8
2016-02-25T07:12:04.505Z,1005.8
2016-02-25T07:15:17.306Z,1005.78
2016-02-25T07:18:29.795Z,1005.94
2016-02-25T07:21:41.009Z,1005.72
2016-02-25T07:24:57.298Z,1005.78
2016-02-25T07:28:01.213Z,1005.82
2016-02-25T07:31:12.033Z,1005.74
2016-02-25T07:34:24.510Z,1005.66
2016-02-25T07:37:36.518Z,1005.68
2016-02-25T07:40:53.310Z,1005.6
2016-02-25T07:43:57.193Z,1005.6
2016-02-25T07:47:09.826Z,1005.68
2016-02-25T07:50:22.600Z,1005.56
2016-02-25T07:53:35.436Z,1005.38
2016-02-25T07:56:45.416Z,1004.49
2016-02-25T07:59:58.939Z,1003.85
2016-02-25T08:03:13.088Z,1003.99
2016-02-25T08:06:25.205Z,1004.75
2016-02-25T08:09:35.917Z,1004.92
2016-02-25T08:12:52.599Z,1004.98
2016-02-25T08:16:00.967Z,1004.53
2016-02-25T08:19:05.756Z,1004.59
2016-02-25T08:22:16.827Z,1004.07
2016-02-25T08:25:30.850Z,1003.93
2016-02-25T08:28:42.096Z,1003.45
2016-02-25T08:31:57.635Z,1003.47
2016-02-25T08:35:03.096Z,1003.57
2016-02-25T08:38:16.777Z,1003.59
2016-02-25T08:41:31.082Z,1003.95
2016-02-25T08:44:43.264Z,1003.77
2016-02-25T08:47:57.959Z,1003.85
2016-02-25T08:51:09.342Z,1003.53
2016-02-25T08:54:22.741Z,1004.47
2016-02-25T08:57:35.187Z,1005
2016-02-25T09:00:45.213Z,1004.96
2016-02-25T09:03:57.627Z,1005.06
2016-02-25T09:07:10.870Z,1004.53
2016-02-25T09:10:22.284Z,1003.32
2016-02-25T09:13:34.448Z,1004.75
2016-02-25T09:16:46.396Z,1004.69
2016-02-25T09:19:58.234Z,1005.1
2016-02-25T09:23:09.929Z,1005
2016-02-25T09:26:19.968Z,1005.32
2016-02-25T09:29:32.039Z,1005.24
2016-02-25T09:32:44.750Z,1005.18
2016-02-25T09:35:57.792Z,1005.28
2016-02-25T09:39:10.972Z,1005.28
2016-02-25T09:42:23.886Z,1003.85
2016-02-25T09:45:35.082Z,1004.51
2016-02-25T09:48:46.840Z,1004.98
2016-02-25T09:51:57.785Z,1004.96
2016-02-25T09:55:10.984Z,1005.16
2016-02-25T09:58:22.367Z,1005.12
2016-02-25T10:01:35.469Z,1004.73
2016-02-25T10:04:46.102Z,1004.49
2016-02-25T10:08:01.188Z,1004.21
2016-02-25T10:11:06.199Z,1004.39
2016-02-25T10:14:16.769Z,1004.94
2016-02-25T10:17:26.887Z,1005.2
2016-02-25T10:20:36.770Z,1004.96
2016-02-25T10:23:51.871Z,1005.24
2016-02-25T10:27:00.207Z,1005.18
2016-02-25T10:30:04.484Z,1005.02
2016-02-25T10:33:14.101Z,1004.92
2016-02-25T10:36:24.219Z,1004.67
2016-02-25T10:39:37.414Z,1005.02
2016-02-25T10:42:54.330Z,1004.75
2016-02-25T10:45:58.869Z,1004.88
2016-02-25T10:49:12.098Z,1005.06
2016-02-25T10:52:21.841Z,1005.16
2016-02-25T10:55:34.895Z,1005.18
2016-02-25T10:58:51.731Z,1005.2
2016-02-25T11:01:59.787Z,1005.14
2016-02-25T11:05:03.983Z,1005.16
2016-02-25T11:08:14.368Z,1005.16
2016-02-25T11:11:27.409Z,1005.2
2016-02-25T11:14:37.604Z,1005.12
2016-02-25T11:17:54.690Z,1005
2016-02-25T11:20:58.995Z,1004.92
2016-02-25T11:24:12.225Z,1004.82
2016-02-25T11:27:23.373Z,1004.9
2016-02-25T11:30:36.506Z,1004.88
2016-02-25T11:33:53.530Z,1005.08
2016-02-25T11:36:57.758Z,1004.88
2016-02-25T11:40:09.594Z,1004.73
2016-02-25T11:43:20.823Z,1004.92
2016-02-25T11:46:33.174Z,1004.96
2016-02-25T11:49:43.448Z,1004.94
2016-02-25T11:53:00.456Z,1004.76
2016-02-25T11:56:04.636Z,1004.86
2016-02-25T11:59:16.334Z,1004.8
2016-02-25T12:02:29.171Z,1004.73
2016-02-25T12:05:42.148Z,1004.69
2016-02-25T12:08:56.922Z,1004.71
2016-02-25T12:12:01.071Z,1004.61
2016-02-25T12:15:14.016Z,1004.69
2016-02-25T12:18:24.699Z,1004.76
2016-02-25T12:21:34.128Z,1004.78
2016-02-25T12:24:46.964Z,1004.94
2016-02-25T12:27:59.331Z,1004.9
2016-02-25T12:31:11.043Z,1004.9
2016-02-25T12:34:22.678Z,1004.78
2016-02-25T12:37:35.687Z,1004.51
2016-02-25T12:40:47.524Z,1004.63
2016-02-25T12:44:00.547Z,1004.61
2016-02-25T12:47:13.507Z,1004.59
2016-02-25T12:50:26.251Z,1004.73
2016-02-25T12:53:38.918Z,1004.84
2016-02-25T12:56:51.832Z,1004.84
2016-02-25T12:59:59.762Z,1004.82
2016-02-25T13:03:03.583Z,1004.8
2016-02-25T13:06:16.341Z,1004.96
2016-02-25T13:09:27.270Z,1004.86
2016-02-25T13:12:40.219Z,1004.96
2016-02-25T13:15:55.868Z,1005.16
2016-02-25T13:18:59.610Z,1005.32
2016-02-25T13:22:08.915Z,1005.3
2016-02-25T13:25:21.313Z,1005.18
2016-02-25T13:28:30.762Z,1005.06
2016-02-25T13:31:43.411Z,1004.88
2016-02-25T13:34:57.434Z,1004.96
2016-02-25T13:38:01.567Z,1004.86
2016-02-25T13:41:14.497Z,1005.08
2016-02-25T13:44:27.521Z,1004.94
2016-02-25T13:47:37.329Z,1004.96
2016-02-25T13:50:51.868Z,1005
2016-02-25T13:53:59.954Z,1005.14
2016-02-25T13:57:03.899Z,1005.16
2016-02-25T14:00:13.986Z,1005.04
2016-02-25T14:03:26.775Z,1005.16
2016-02-25T14:06:38.114Z,1005.06
2016-02-25T14:09:54.794Z,1005.18
2016-02-25T14:12:58.709Z,1005.08
2016-02-25T14:16:09.263Z,1005.3
2016-02-25T14:19:21.677Z,1005.3
2016-02-25T14:22:31.844Z,1005.28
2016-02-25T14:25:41.681Z,1005.36
2016-02-25T14:28:55.267Z,1005.22
2016-02-25T14:31:59.118Z,1005.38
2016-02-25T14:35:12.001Z,1005.18
2016-02-25T14:38:24.572Z,1005.24
2016-02-25T14:41:37.662Z,1005.12
2016-02-25T14:44:52.388Z,1005.12
2016-02-25T14:48:00.349Z,1005.1
2016-02-25T14:51:04.217Z,1005.14
2016-02-25T14:54:17.021Z,1005.06
2016-02-25T14:57:29.810Z,1005.12
2016-02-25T15:00:41.869Z,1005.24
2016-02-25T15:03:56.815Z,1005.16
2016-02-25T15:07:00.682Z,1005.12
2016-02-25T15:10:10.971Z,1005.16
2016-02-25T15:13:23.995Z,1005.22
2016-02-25T15:16:34.583Z,1005.22
2016-02-25T15:19:47.388Z,1005.12
2016-02-25T15:23:00.224Z,1005.2
2016-02-25T15:26:11.889Z,1005.06
2016-02-25T15:29:23.288Z,1005.16
2016-02-25T15:32:33.626Z,1005.2
2016-02-25T15:35:45.525Z,1005.14
2016-02-25T15:38:58.205Z,1005.08
2016-02-25T15:42:11.275Z,1005
2016-02-25T15:45:22.206Z,1005.1
2016-02-25T15:48:33.211Z,1005.08
2016-02-25T15:51:44.313Z,1005.26
2016-02-25T15:54:58.494Z,1005.2
2016-02-25T15:58:02.486Z,1005.1
2016-02-25T16:01:15.400Z,1005.1
2016-02-25T16:04:26.908Z,1005.08
2016-02-25T16:07:36.939Z,1005.1
2016-02-25T16:10:53.354Z,1005.1
2016-02-25T16:14:01.176Z,1005.28
2016-02-25T16:17:05.269Z,1005.3
2016-02-25T16:20:14.303Z,1005.24
2016-02-25T16:23:26.075Z,1005.36
2016-02-25T16:26:37.388Z,1005.24
2016-02-25T16:29:53.879Z,1005.2
2016-02-25T16:32:57.793Z,1005.3
2016-02-25T16:36:08.005Z,1005.44
2016-02-25T16:39:20.528Z,1005.38
2016-02-25T16:42:33.174Z,1005.28
2016-02-25T16:45:45.826Z,1005.44
2016-02-25T16:49:00.630Z,1005.48
2016-02-25T16:52:04.467Z,1005.5
2016-02-25T16:55:16.678Z,1005.56
2016-02-25T16:58:26.779Z,1005.5
2016-02-25T17:01:39.337Z,1005.6
2016-02-25T17:04:52.111Z,1005.74
2016-02-25T17:07:59.728Z,1005.72
2016-02-25T17:11:03.361Z,1005.78
2016-02-25T17:14:15.604Z,1005.8
2016-02-25T17:17:27.893Z,1005.74
2016-02-25T17:20:40.763Z,1005.76
2016-02-25T17:23:57.554Z,1005.92
2016-02-25T17:27:01.764Z,1005.8
2016-02-25T17:30:12.287Z,1005.92
2016-02-25T17:33:23.077Z,1005.96
2016-02-25T17:36:33.586Z,1006.06
2016-02-25T17:39:46.472Z,1005.98
2016-02-25T17:42:59.558Z,1005.94
2016-02-25T17:46:10.316Z,1006.2
2016-02-25T17:49:23.308Z,1006.12
2016-02-25T17:52:36.535Z,1006.22
2016-02-25T17:55:53.545Z,1006.28
2016-02-25T17:59:01.694Z,1006.18
2016-02-25T18:02:05.920Z,1006.14
2016-02-25T18:05:18.652Z,1006.2
2016-02-25T18:08:31.693Z,1006.12
2016-02-25T18:11:41.360Z,1006.34
2016-02-25T18:14:54.617Z,1006.18
2016-02-25T18:17:58.672Z,1006.26
2016-02-25T18:21:11.477Z,1006.26
2016-02-25T18:24:23.641Z,1006.38
2016-02-25T18:27:36.524Z,1006.32
2016-02-25T18:30:53.457Z,1006.26
2016-02-25T18:34:01.466Z,1006.36
2016-02-25T18:37:05.520Z,1006.24
2016-02-25T18:40:18.279Z,1006.28
2016-02-25T18:43:30.834Z,1006.36
2016-02-25T18:46:41.016Z,1006.28
2016-02-25T18:49:58.040Z,1006.24
2016-02-25T18:53:02.173Z,1006.22
2016-02-25T18:56:14.743Z,1006.2
2016-02-25T18:59:27.486Z,1006.24
2016-02-25T19:02:40.387Z,1006.24
2016-02-25T19:05:55.798Z,1006.26
2016-02-25T19:08:59.713Z,1006.2
2016-02-25T19:12:12.299Z,1006.28
2016-02-25T19:15:23.010Z,1006.32
2016-02-25T19:18:33.268Z,1006.3
2016-02-25T19:21:45.966Z,1006.34
2016-02-25T19:25:00.709Z,1006.32
2016-02-25T19:28:04.716Z,1006.48
2016-02-25T19:31:17.178Z,1006.54
2016-02-25T19:34:29.826Z,1006.54
2016-02-25T19:37:42.696Z,1006.52
2016-02-25T19:40:59.017Z,1006.59
2016-02-25T19:44:03.057Z,1006.52
2016-02-25T19:47:13.268Z,1006.52
2016-02-25T19:50:22.619Z,1006.48
2016-02-25T19:53:35.221Z,1006.46
2016-02-25T19:56:48.217Z,1006.48
2016-02-25T20:00:00.600Z,1006.48
2016-02-25T20:03:09.014Z,1006.5
2016-02-25T20:06:22.630Z,1006.46
2016-02-25T20:09:35.358Z,1006.52
2016-02-25T20:12:45.119Z,1006.46
2016-02-25T20:16:01.627Z,1006.59
2016-02-25T20:19:05.494Z,1006.54
2016-02-25T20:22:17.799Z,1006.57
2016-02-25T20:25:28.776Z,1006.5
2016-02-25T20:28:41.584Z,1006.59
2016-02-25T20:31:55.638Z,1006.52
2016-02-25T20:34:59.661Z,1006.52
2016-02-25T20:38:10.280Z,1006.55
2016-02-25T20:41:19.944Z,1006.61
2016-02-25T20:44:30.343Z,1006.59
2016-02-25T20:47:43.086Z,1006.46
2016-02-25T20:50:59.768Z,1006.5
2016-02-25T20:54:03.557Z,1006.48
2016-02-25T20:57:15.924Z,1006.55
2016-02-25T21:00:26.433Z,1006.55
2016-02-25T21:03:39.113Z,1006.57
2016-02-25T21:06:55.062Z,1006.55
2016-02-25T21:09:58.475Z,1006.52
2016-02-25T21:13:11.436Z,1006.46
2016-02-25T21:16:21.804Z,1006.46
2016-02-25T21:19:34.641Z,1006.52
2016-02-25T21:22:44.211Z,1006.5
2016-02-25T21:26:00.799Z,1006.46
2016-02-25T21:29:03.495Z,1006.42
2016-02-25T21:32:17.441Z,1006.36
2016-02-25T21:35:28.948Z,1006.46
2016-02-25T21:38:41.285Z,1006.28
2016-02-25T21:41:58.077Z,1006.28
2016-02-25T21:45:02.100Z,1006.3
2016-02-25T21:48:14.984Z,1006.38
2016-02-25T21:51:25.758Z,1006.34
2016-02-25T21:54:38.594Z,1006.42
2016-02-25T21:57:55.086Z,1006.4
2016-02-25T22:00:59.157Z,1006.38
2016-02-25T22:04:09.668Z,1006.42
2016-02-25T22:07:22.082Z,1006.4
2016-02-25T22:10:35.091Z,1006.4
2016-02-25T22:13:47.473Z,1006.44
2016-02-25T22:17:00.481Z,1006.34
2016-02-25T22:20:11.367Z,1006.44
2016-02-25T22:23:22.209Z,1006.38
2016-02-25T22:26:35.170Z,1006.4
2016-02-25T22:29:47.850Z,1006.26
2016-02-25T22:33:05.108Z,1006.26
2016-02-25T22:36:06.116Z,1006.26
2016-02-25T22:39:19.158Z,1006.3
2016-02-25T22:42:32.104Z,1006.3
2016-02-25T22:45:42.330Z,1006.26
2016-02-25T22:52:03.331Z,1006.28
2016-02-25T22:55:15.530Z,1006.32
2016-02-25T22:58:28.568Z,1006.2
2016-02-25T23:01:40.327Z,1006.1
2016-02-25T23:04:57.272Z,1006.16
2016-02-25T23:08:01.322Z,1006.2
2016-02-25T23:11:14.330Z,1006.18
2016-02-25T23:14:26.029Z,1006.12
2016-02-25T23:17:38.615Z,1006.02
2016-02-25T23:20:54.806Z,1006.22
2016-02-25T23:24:02.890Z,1006.16
2016-02-25T23:27:07.148Z,1006.18
2016-02-25T23:30:16.515Z,1006.26
2016-02-25T23:33:29.474Z,1006.22
2016-02-25T23:36:42.139Z,1006.28
2016-02-25T23:39:58.928Z,1006.32
2016-02-25T23:43:02.764Z,1006.3
2016-02-25T23:46:13.350Z,1006.18
2016-02-25T23:49:26.142Z,1006.32
2016-02-25T23:52:39.103Z,1006.3
2016-02-25T23:55:54.502Z,1006.32
2016-02-25T23:59:02.432Z,1006.32
